Time,TemperatureF,DewpointF,PressureIn,WindDirection,WindDirectionDegrees,WindSpeedMPH,WindSpeedGustMPH,Humidity,HourlyPrecipIn,Conditions,Clouds,dailyrainin,SoftwareType,DateUTC
2013-04-04 00:02:00,54.0,54.0,29.88,NW,326,0.0,6.0,100,0.00,,,6.33,,2013-04-04 00:02:00,
2013-04-04 00:12:00,54.0,54.0,29.88,NW,326,0.0,6.0,100,0.00,,,6.33,,2013-04-04 00:12:00,
2013-04-04 00:22:00,53.0,53.0,29.90,NNE,30,1.0,6.0,100,0.00,,,6.33,,2013-04-04 00:22:00,
2013-04-04 00:32:00,53.0,53.0,29.90,NNW,339,0.0,4.0,100,0.00,,,6.33,,2013-04-04 00:32:00,
2013-04-04 00:43:00,53.0,53.0,29.90,NNW,339,0.0,4.0,100,0.00,,,6.33,,2013-04-04 00:43:00,
2013-04-04 00:52:00,53.0,53.0,29.91,West,262,0.0,6.0,100,0.00,,,6.33,,2013-04-04 00:52:00,
2013-04-04 01:02:00,53.0,53.0,29.92,WNW,295,1.0,5.0,100,0.00,,,6.33,,2013-04-04 01:02:00,
2013-04-04 01:12:00,53.0,53.0,29.92,WNW,295,1.0,5.0,100,0.00,,,6.33,,2013-04-04 01:12:00,
2013-04-04 01:22:00,53.0,53.0,29.92,West,278,2.0,7.0,100,0.00,,,6.33,,2013-04-04 01:22:00,
2013-04-04 01:32:00,53.0,53.0,29.92,West,262,0.0,7.0,100,0.00,,,6.33,,2013-04-04 01:32:00,
2013-04-04 01:43:00,53.0,53.0,29.92,West,262,0.0,7.0,100,0.00,,,6.33,,2013-04-04 01:43:00,
2013-04-04 01:52:00,53.0,53.0,29.94,WNW,289,0.0,3.0,100,0.00,,,6.33,,2013-04-04 01:52:00,
2013-04-04 02:02:00,52.0,52.0,29.95,WSW,242,0.0,6.0,100,0.00,,,6.33,,2013-04-04 02:02:00,
2013-04-04 02:12:00,52.0,52.0,29.95,WSW,242,0.0,6.0,100,0.00,,,6.33,,2013-04-04 02:12:00,
2013-04-04 02:22:00,52.0,52.0,29.96,North,3,0.0,6.0,100,0.00,,,6.33,,2013-04-04 02:22:00,
2013-04-04 02:32:00,52.0,52.0,29.97,WNW,294,0.0,4.0,100,0.00,,,6.33,,2013-04-04 02:32:00,
2013-04-04 02:42:00,52.0,52.0,29.97,WNW,294,0.0,4.0,100,0.00,,,6.33,,2013-04-04 02:42:00,
2013-04-04 02:52:00,52.0,52.0,29.97,WNW,294,0.0,4.0,100,0.00,,,6.33,,2013-04-04 02:52:00,
2013-04-04 03:02:00,52.0,52.0,29.98,West,275,0.0,6.0,100,0.00,,,6.33,,2013-04-04 03:02:00,
2013-04-04 03:12:00,52.0,52.0,29.98,West,275,0.0,6.0,100,0.00,,,6.33,,2013-04-04 03:12:00,
2013-04-04 03:22:00,51.0,51.0,29.98,NNW,342,0.0,3.0,100,0.00,,,6.33,,2013-04-04 03:22:00,
2013-04-04 03:33:00,51.0,51.0,29.98,NW,308,0.0,6.0,100,0.01,,,6.34,,2013-04-04 03:33:00,
2013-04-04 03:43:00,51.0,51.0,29.98,NW,308,0.0,6.0,100,0.01,,,6.34,,2013-04-04 03:43:00,
2013-04-04 03:53:00,51.0,51.0,29.99,NW,314,0.0,4.0,100,0.01,,,6.34,,2013-04-04 03:53:00,
2013-04-04 04:02:00,51.0,51.0,29.99,NE,48,0.0,5.0,100,0.01,,,6.34,,2013-04-04 04:02:00,
2013-04-04 04:12:00,51.0,51.0,29.99,NE,48,0.0,5.0,100,0.01,,,6.34,,2013-04-04 04:12:00,
2013-04-04 04:23:00,50.0,50.0,30.00,NNW,328,1.0,3.0,100,0.01,,,6.34,,2013-04-04 04:23:00,
2013-04-04 04:33:00,50.0,50.0,30.00,West,275,0.0,3.0,100,0.00,,,6.34,,2013-04-04 04:33:00,
2013-04-04 04:43:00,50.0,50.0,30.00,West,275,0.0,3.0,100,0.00,,,6.34,,2013-04-04 04:43:00,
2013-04-04 04:53:00,50.0,50.0,30.00,South,172,1.0,4.0,100,0.00,,,6.34,,2013-04-04 04:53:00,
2013-04-04 05:02:00,50.0,50.0,29.99,NW,325,0.0,3.0,100,0.00,,,6.34,,2013-04-04 05:02:00,
2013-04-04 05:13:00,50.0,50.0,29.99,NW,325,0.0,3.0,100,0.00,,,6.34,,2013-04-04 05:13:00,
2013-04-04 05:23:00,50.0,50.0,29.98,NE,56,0.0,5.0,100,0.00,,,6.34,,2013-04-04 05:23:00,
2013-04-04 05:32:00,50.0,50.0,29.98,North,10,0.0,3.0,100,0.00,,,6.34,,2013-04-04 05:32:00,
2013-04-04 05:42:00,50.0,50.0,29.98,North,10,0.0,3.0,100,0.00,,,6.34,,2013-04-04 05:42:00,
2013-04-04 05:52:00,50.0,50.0,29.98,ENE,70,0.0,2.0,100,0.00,,,6.34,,2013-04-04 05:52:00,
2013-04-04 06:02:00,50.0,50.0,29.96,NNW,329,0.0,3.0,100,0.00,,,6.34,,2013-04-04 06:02:00,
2013-04-04 06:12:00,50.0,50.0,29.96,NNW,329,0.0,3.0,100,0.00,,,6.34,,2013-04-04 06:12:00,
2013-04-04 06:22:00,50.0,50.0,29.94,North,5,0.0,5.0,100,0.00,,,6.34,,2013-04-04 06:22:00,
2013-04-04 06:32:00,50.0,50.0,29.95,North,352,0.0,2.0,100,0.00,,,6.34,,2013-04-04 06:32:00,
2013-04-04 06:42:00,50.0,50.0,29.95,North,352,0.0,2.0,100,0.00,,,6.34,,2013-04-04 06:42:00,
2013-04-04 06:52:00,50.0,50.0,29.93,NE,51,0.0,3.0,100,0.00,,,6.34,,2013-04-04 06:52:00,
2013-04-04 07:02:00,50.0,50.0,29.93,North,349,0.0,2.0,100,0.00,,,6.34,,2013-04-04 07:02:00,
2013-04-04 07:12:00,50.0,50.0,29.93,North,349,0.0,2.0,100,0.00,,,6.34,,2013-04-04 07:12:00,
2013-04-04 07:22:00,50.0,50.0,29.95,NW,318,0.0,3.0,100,0.00,,,6.34,,2013-04-04 07:22:00,
2013-04-04 07:32:00,50.0,50.0,29.95,WNW,296,0.0,3.0,100,0.00,,,6.34,,2013-04-04 07:32:00,
2013-04-04 07:42:00,50.0,50.0,29.95,WNW,296,0.0,3.0,100,0.00,,,6.34,,2013-04-04 07:42:00,
2013-04-04 07:52:00,49.0,49.0,29.94,West,280,0.0,3.0,100,0.00,,,6.34,,2013-04-04 07:52:00,
2013-04-04 08:02:00,49.0,49.0,29.92,NW,320,0.0,4.0,100,0.00,,,6.34,,2013-04-04 08:02:00,
2013-04-04 08:12:00,49.0,49.0,29.92,NW,320,0.0,4.0,100,0.00,,,6.34,,2013-04-04 08:12:00,
2013-04-04 08:22:00,49.0,49.0,29.90,NE,49,0.0,3.0,100,0.00,,,6.34,,2013-04-04 08:22:00,
2013-04-04 08:32:00,49.0,49.0,29.92,West,271,0.0,3.0,100,0.00,,,6.34,,2013-04-04 08:32:00,
2013-04-04 08:42:00,49.0,49.0,29.92,West,271,0.0,3.0,100,0.00,,,6.34,,2013-04-04 08:42:00,
2013-04-04 08:52:00,49.0,49.0,29.93,NW,309,0.0,2.0,100,0.00,,,6.34,,2013-04-04 08:52:00,
2013-04-04 09:02:00,49.0,49.0,29.93,ENE,72,0.0,3.0,100,0.00,,,6.34,,2013-04-04 09:02:00,
2013-04-04 09:12:00,49.0,49.0,29.93,ENE,72,0.0,3.0,100,0.00,,,6.34,,2013-04-04 09:12:00,
2013-04-04 09:22:00,49.0,49.0,29.92,SW,222,0.0,2.0,100,0.00,,,6.20,,2013-04-04 09:22:00,
2013-04-04 09:33:00,49.0,49.0,29.93,West,281,0.0,2.0,100,0.00,,,6.15,,2013-04-04 09:33:00,
2013-04-04 09:43:00,49.0,49.0,29.93,West,281,0.0,2.0,100,0.00,,,6.15,,2013-04-04 09:43:00,
2013-04-04 09:54:00,49.0,49.0,29.92,ESE,110,0.0,3.0,100,0.00,,,6.15,,2013-04-04 09:54:00,
2013-04-04 10:03:00,49.0,49.0,29.93,NW,318,0.0,0.0,100,0.00,,,5.86,,2013-04-04 10:03:00,
2013-04-04 10:12:00,49.0,49.0,29.93,NW,318,0.0,0.0,100,0.00,,,5.86,,2013-04-04 10:12:00,
2013-04-04 10:23:00,49.0,49.0,29.93,NW,312,0.0,0.0,100,0.00,,,5.83,,2013-04-04 10:23:00,
2013-04-04 10:33:00,49.0,49.0,29.93,North,0,0.0,0.0,100,0.00,,,4.71,,2013-04-04 10:33:00,
2013-04-04 10:42:00,49.0,49.0,29.93,North,0,0.0,0.0,100,0.00,,,4.71,,2013-04-04 10:42:00,
2013-04-04 10:53:00,49.0,49.0,29.94,NNW,341,0.0,0.0,100,0.00,,,4.20,,2013-04-04 10:53:00,
2013-04-04 11:02:00,49.0,49.0,29.94,NNE,19,0.0,1.0,100,0.00,,,3.49,,2013-04-04 11:02:00,
2013-04-04 11:12:00,49.0,49.0,29.94,NNE,19,0.0,1.0,100,0.00,,,3.49,,2013-04-04 11:12:00,
2013-04-04 11:22:00,49.0,49.0,29.95,West,270,0.0,0.0,100,0.00,,,3.46,,2013-04-04 11:22:00,
2013-04-04 11:32:00,49.0,49.0,29.95,ENE,62,0.0,3.0,100,0.00,,,3.46,,2013-04-04 11:32:00,
2013-04-04 11:42:00,49.0,49.0,29.95,ENE,62,0.0,3.0,100,0.00,,,3.46,,2013-04-04 11:42:00,
2013-04-04 11:54:00,49.0,49.0,29.96,NNW,334,0.0,2.0,100,0.00,,,1.13,,2013-04-04 11:54:00,
2013-04-04 12:02:00,49.0,49.0,29.96,West,270,0.0,0.0,100,0.00,,,0.65,,2013-04-04 12:02:00,
2013-04-04 12:12:00,49.0,49.0,29.96,West,270,0.0,0.0,100,0.00,,,0.65,,2013-04-04 12:12:00,
2013-04-04 12:22:00,50.0,50.0,29.96,WNW,297,0.0,1.0,100,0.00,,,0.41,,2013-04-04 12:22:00,
2013-04-04 12:32:00,49.0,49.0,29.97,NW,314,0.0,3.0,100,0.00,,,0.36,,2013-04-04 12:32:00,
2013-04-04 12:43:00,49.0,49.0,29.97,NW,314,0.0,3.0,100,0.00,,,0.36,,2013-04-04 12:43:00,
2013-04-04 12:52:00,49.0,49.0,29.98,WNW,283,0.0,1.0,100,0.00,,,0.17,,2013-04-04 12:52:00,
2013-04-04 13:02:00,50.0,50.0,29.98,NNE,16,0.0,4.0,100,0.00,,,0.17,,2013-04-04 13:02:00,
2013-04-04 13:12:00,50.0,50.0,29.98,NNE,16,0.0,4.0,100,0.00,,,0.17,,2013-04-04 13:12:00,
2013-04-04 13:22:00,50.0,50.0,29.98,West,270,0.0,0.0,100,0.00,,,0.17,,2013-04-04 13:22:00,
2013-04-04 13:32:00,50.0,50.0,29.97,NNW,342,0.0,3.0,100,0.00,,,0.17,,2013-04-04 13:32:00,
2013-04-04 13:42:00,50.0,50.0,29.97,NNW,342,0.0,3.0,100,0.00,,,0.17,,2013-04-04 13:42:00,
2013-04-04 13:53:00,50.0,50.0,29.97,West,272,0.0,2.0,100,0.00,,,0.17,,2013-04-04 13:53:00,
2013-04-04 14:03:00,50.0,50.0,29.98,WNW,303,0.0,2.0,100,0.00,,,0.17,,2013-04-04 14:03:00,
2013-04-04 14:12:00,50.0,50.0,29.98,WNW,303,0.0,2.0,100,0.00,,,0.17,,2013-04-04 14:12:00,
2013-04-04 14:22:00,51.0,51.0,29.98,West,275,0.0,3.0,100,0.00,,,0.17,,2013-04-04 14:22:00,
2013-04-04 14:32:00,51.0,51.0,30.00,West,263,0.0,5.0,100,0.00,,,0.17,,2013-04-04 14:32:00,
2013-04-04 14:42:00,51.0,51.0,30.00,West,263,0.0,5.0,100,0.00,,,0.17,,2013-04-04 14:42:00,
2013-04-04 14:52:00,51.0,51.0,30.00,West,280,0.0,3.0,100,0.00,,,0.17,,2013-04-04 14:52:00,
2013-04-04 15:02:00,51.0,51.0,29.99,West,265,0.0,3.0,100,0.00,,,0.17,,2013-04-04 15:02:00,
2013-04-04 15:12:00,51.0,51.0,29.99,West,265,0.0,3.0,100,0.00,,,0.17,,2013-04-04 15:12:00,
2013-04-04 15:22:00,52.0,52.0,29.99,WNW,290,0.0,4.0,100,0.00,,,0.17,,2013-04-04 15:22:00,
2013-04-04 15:33:00,53.0,53.0,29.99,WNW,286,0.0,3.0,100,0.00,,,0.17,,2013-04-04 15:33:00,
2013-04-04 15:43:00,53.0,53.0,29.99,WNW,286,0.0,3.0,100,0.00,,,0.17,,2013-04-04 15:43:00,
2013-04-04 15:53:00,53.0,53.0,30.00,West,270,1.0,4.0,100,0.00,,,0.17,,2013-04-04 15:53:00,
2013-04-04 16:03:00,53.0,53.0,30.01,NW,306,2.0,5.0,100,0.00,,,0.17,,2013-04-04 16:03:00,
2013-04-04 16:12:00,53.0,53.0,30.01,NW,306,2.0,5.0,100,0.00,,,0.17,,2013-04-04 16:12:00,
2013-04-04 16:23:00,53.0,53.0,30.01,NW,306,0.0,4.0,100,0.00,,,0.17,,2013-04-04 16:23:00,
2013-04-04 16:32:00,53.0,53.0,30.01,West,260,1.0,6.0,100,0.00,,,0.17,,2013-04-04 16:32:00,
2013-04-04 16:42:00,53.0,53.0,30.01,West,260,1.0,6.0,100,0.00,,,0.17,,2013-04-04 16:42:00,
2013-04-04 16:53:00,53.0,53.0,30.01,ENE,75,0.0,3.0,100,0.00,,,0.17,,2013-04-04 16:53:00,
2013-04-04 17:02:00,53.0,53.0,30.01,West,274,1.0,6.0,100,0.00,,,0.17,,2013-04-04 17:02:00,
2013-04-04 17:13:00,53.0,53.0,30.01,West,274,1.0,6.0,100,0.00,,,0.17,,2013-04-04 17:13:00,
2013-04-04 17:22:00,54.0,53.0,30.00,West,264,1.0,6.0,95,0.00,,,0.17,,2013-04-04 17:22:00,
2013-04-04 17:33:00,54.0,53.0,30.01,West,275,1.0,5.0,97,0.00,,,0.17,,2013-04-04 17:33:00,
2013-04-04 17:42:00,54.0,53.0,30.01,West,275,1.0,5.0,97,0.00,,,0.17,,2013-04-04 17:42:00,
2013-04-04 17:52:00,55.0,53.0,30.00,West,265,0.0,6.0,92,0.00,,,0.17,,2013-04-04 17:52:00,
2013-04-04 18:02:00,56.0,54.0,29.98,North,4,0.0,6.0,94,0.00,,,0.17,,2013-04-04 18:02:00,
2013-04-04 18:12:00,56.0,54.0,29.98,North,4,0.0,6.0,94,0.00,,,0.17,,2013-04-04 18:12:00,
2013-04-04 18:22:00,56.0,51.0,29.98,West,272,2.0,8.0,84,0.00,,,0.17,,2013-04-04 18:22:00,
2013-04-04 18:32:00,56.0,51.0,29.98,WNW,283,1.0,6.0,83,0.00,,,0.15,,2013-04-04 18:32:00,
2013-04-04 18:42:00,56.0,51.0,29.98,WNW,283,1.0,6.0,83,0.00,,,0.15,,2013-04-04 18:42:00,
2013-04-04 18:52:00,55.0,49.0,29.97,West,266,1.0,6.0,81,0.00,,,0.01,,2013-04-04 18:52:00,
2013-04-04 19:02:00,55.0,49.0,29.96,West,265,1.0,6.0,81,0.00,,,0.01,,2013-04-04 19:02:00,
2013-04-04 19:12:00,55.0,49.0,29.96,West,265,1.0,6.0,81,0.00,,,0.01,,2013-04-04 19:12:00,
2013-04-04 19:22:00,55.0,49.0,29.96,NW,314,0.0,7.0,81,0.00,,,0.01,,2013-04-04 19:22:00,
2013-04-04 19:32:00,55.0,48.0,29.96,NNW,335,1.0,9.0,77,0.00,,,0.01,,2013-04-04 19:32:00,
2013-04-04 19:42:00,55.0,48.0,29.96,NNW,335,1.0,9.0,77,0.00,,,0.01,,2013-04-04 19:42:00,
2013-04-04 19:52:00,55.0,48.0,29.95,West,270,0.0,6.0,78,0.00,,,0.01,,2013-04-04 19:52:00,
2013-04-04 20:03:00,55.0,48.0,29.94,West,259,1.0,5.0,77,0.00,,,0.01,,2013-04-04 20:03:00,
2013-04-04 20:12:00,55.0,48.0,29.94,West,259,1.0,5.0,77,0.00,,,0.01,,2013-04-04 20:12:00,
2013-04-04 20:22:00,56.0,49.0,29.93,West,270,0.0,6.0,77,0.00,,,0.01,,2013-04-04 20:22:00,
2013-04-04 20:32:00,56.0,48.0,29.93,West,273,0.0,6.0,75,0.00,,,0.01,,2013-04-04 20:32:00,
2013-04-04 20:42:00,56.0,48.0,29.93,West,273,0.0,6.0,75,0.00,,,0.01,,2013-04-04 20:42:00,
2013-04-04 20:53:00,56.0,47.0,29.93,West,261,1.0,5.0,73,0.00,,,0.01,,2013-04-04 20:53:00,
2013-04-04 21:02:00,56.0,47.0,29.92,WSW,250,0.0,6.0,73,0.00,,,0.01,,2013-04-04 21:02:00,
2013-04-04 21:12:00,56.0,47.0,29.92,WSW,250,0.0,6.0,73,0.00,,,0.01,,2013-04-04 21:12:00,
2013-04-04 21:22:00,56.0,47.0,29.93,NW,316,0.0,7.0,72,0.00,,,0.01,,2013-04-04 21:22:00,
2013-04-04 21:32:00,55.0,47.0,29.93,West,275,0.0,7.0,73,0.00,,,0.01,,2013-04-04 21:32:00,
2013-04-04 21:43:00,55.0,47.0,29.93,West,275,0.0,7.0,73,0.00,,,0.01,,2013-04-04 21:43:00,
2013-04-04 21:53:00,55.0,47.0,29.93,West,270,0.0,5.0,73,0.00,,,0.01,,2013-04-04 21:53:00,
2013-04-04 22:03:00,54.0,46.0,29.93,West,278,0.0,5.0,75,0.00,,,0.01,,2013-04-04 22:03:00,
2013-04-04 22:12:00,54.0,46.0,29.93,West,278,0.0,5.0,75,0.00,,,0.01,,2013-04-04 22:12:00,
2013-04-04 22:23:00,54.0,47.0,29.93,WSW,240,0.0,8.0,76,0.00,,,0.01,,2013-04-04 22:23:00,
2013-04-04 22:33:00,53.0,46.0,29.94,WNW,295,0.0,8.0,76,0.00,,,0.01,,2013-04-04 22:33:00,
2013-04-04 22:42:00,53.0,46.0,29.94,WNW,295,0.0,8.0,76,0.00,,,0.01,,2013-04-04 22:42:00,
2013-04-04 22:53:00,53.0,46.0,29.95,WSW,255,1.0,5.0,77,0.00,,,0.01,,2013-04-04 22:53:00,
2013-04-04 23:02:00,52.0,45.0,29.96,West,259,0.0,5.0,78,0.00,,,0.01,,2013-04-04 23:02:00,
2013-04-04 23:12:00,52.0,45.0,29.96,West,259,0.0,5.0,78,0.00,,,0.01,,2013-04-04 23:12:00,
2013-04-04 23:22:00,52.0,46.0,29.96,WSW,254,1.0,5.0,79,0.00,,,0.01,,2013-04-04 23:22:00,
2013-04-04 23:32:00,51.0,45.0,29.96,WNW,284,0.0,5.0,81,0.00,,,0.01,,2013-04-04 23:32:00,
2013-04-04 23:42:00,51.0,45.0,29.96,WNW,284,0.0,5.0,81,0.00,,,0.01,,2013-04-04 23:42:00,
2013-04-04 23:52:00,50.0,45.0,29.97,West,261,0.0,4.0,83,0.00,,,0.01,,2013-04-04 23:52:00,